Time;durP1;ratioP1;P1;durP2;ratioP2;P2;SDS_P1;SDS_P2;PMS_P1;PMS_P2;Temp;Humidity;BMP_temperature;BMP_pressure;BME280_temperature;BME280_humidity;BME280_pressure;Samples;Min_cycle;Max_cycle;Signal;HPM_P1;HPM_P2
2024/01/28 00:00:51;;;;;;;;;;;1.20;99.90;;;;;;4991734;28;20125;-78
2024/01/28 00:03:19;;;;;;;0.70;0.70;;;1.10;99.90;;;;;;5010419;28;19921;-79
2024/01/28 00:05:45;;;;;;;0.70;0.70;;;1.10;99.90;;;;;;5008880;28;20037;-77
2024/01/28 00:08:25;;;;;;;0.70;0.70;;;1.10;99.90;;;;;;5011383;28;20030;-75
2024/01/28 00:10:54;;;;;;;0.70;0.70;;;1.00;99.90;;;;;;5009568;28;20165;-77
2024/01/28 00:13:24;;;;;;;0.80;0.80;;;1.00;99.90;;;;;;5009299;28;20038;-77
2024/01/28 00:15:52;;;;;;;0.70;0.70;;;0.90;99.90;;;;;;5006316;28;20125;-75
2024/01/28 00:18:19;;;;;;;0.60;0.60;;;0.80;99.90;;;;;;5006638;28;20050;-77
2024/01/28 00:20:48;;;;;;;0.70;0.70;;;0.80;99.90;;;;;;4991913;28;20084;-77
2024/01/28 00:23:14;;;;;;;2.30;1.67;;;0.80;99.90;;;;;;5010092;28;20050;-77
2024/01/28 00:25:41;;;;;;;0.73;0.73;;;1.00;99.90;;;;;;5006424;28;20072;-77
2024/01/28 00:28:07;;;;;;;0.70;0.70;;;0.80;99.90;;;;;;5009118;28;20049;-77
2024/01/28 00:30:32;;;;;;;0.68;0.68;;;1.60;99.90;;;;;;5008640;28;20061;-76
2024/01/28 00:32:59;;;;;;;0.70;0.70;;;0.60;99.90;;;;;;5008311;28;20046;-76
2024/01/28 00:35:25;;;;;;;0.85;0.85;;;0.60;99.90;;;;;;5009600;28;20495;-79
2024/01/28 00:37:54;;;;;;;0.88;0.88;;;0.60;99.90;;;;;;5010812;28;20045;-76
2024/01/28 00:40:20;;;;;;;1.05;1.05;;;1.30;99.90;;;;;;5011543;28;20052;-77
2024/01/28 00:42:54;;;;;;;0.80;0.80;;;0.70;99.90;;;;;;5008175;28;20030;-78
2024/01/28 00:45:20;;;;;;;0.70;0.70;;;0.70;99.90;;;;;;4987729;28;20049;-77
2024/01/28 00:47:47;;;;;;;0.70;0.70;;;0.80;99.90;;;;;;5009684;28;20058;-79
2024/01/28 00:50:22;;;;;;;0.70;0.70;;;0.80;99.90;;;;;;5011081;28;20038;-77
2024/01/28 00:52:51;;;;;;;0.77;0.77;;;0.80;99.90;;;;;;5010666;28;20073;-77
2024/01/28 00:55:17;;;;;;;0.73;0.73;;;1.00;99.90;;;;;;5007972;28;20030;-77
2024/01/28 00:57:43;;;;;;;1.00;1.00;;;0.90;99.90;;;;;;5010776;28;20137;-77
2024/01/28 01:00:18;;;;;;;1.02;1.02;;;0.90;99.90;;;;;;4994414;28;20120;-76
2024/01/28 01:02:44;;;;;;;0.70;0.70;;;0.90;99.90;;;;;;5026170;28;20058;-78
2024/01/28 01:05:11;;;;;;;1.13;1.13;;;0.90;99.90;;;;;;4994018;28;20068;-77
2024/01/28 01:07:39;;;;;;;0.70;0.70;;;1.00;99.90;;;;;;5010843;28;20133;-77
2024/01/28 01:10:08;;;;;;;0.90;0.90;;;2.50;99.90;;;;;;5008477;28;20122;-75
2024/01/28 01:12:35;;;;;;;0.70;0.70;;;0.90;99.90;;;;;;4994718;28;20113;-79
2024/01/28 01:15:15;;;;;;;0.70;0.70;;;0.80;99.90;;;;;;5010437;28;20072;-76
2024/01/28 01:17:44;;;;;;;0.80;0.80;;;0.80;99.90;;;;;;4996968;28;20045;-76
2024/01/28 01:20:19;;;;;;;1.70;1.60;;;0.80;99.90;;;;;;5008764;28;20467;-76
2024/01/28 01:22:45;;;;;;;1.98;1.85;;;0.90;99.90;;;;;;4996376;28;20093;-77
2024/01/28 01:25:13;;;;;;;2.45;1.77;;;0.90;99.90;;;;;;4993907;28;20049;-76
2024/01/28 01:27:52;;;;;;;0.70;0.70;;;0.90;99.90;;;;;;5003696;28;20045;-77
2024/01/28 01:30:18;;;;;;;0.70;0.70;;;0.90;99.90;;;;;;4997433;28;20133;-76
2024/01/28 01:32:47;;;;;;;0.60;0.60;;;1.00;99.90;;;;;;4995535;28;20087;-78
2024/01/28 01:35:22;;;;;;;0.80;0.80;;;1.00;99.90;;;;;;5023623;28;20057;-77
2024/01/28 01:37:48;;;;;;;0.70;0.70;;;1.10;99.90;;;;;;5013043;28;20075;-77
2024/01/28 01:40:15;;;;;;;0.90;0.90;;;2.60;99.90;;;;;;5011185;28;20045;-77
2024/01/28 01:42:44;;;;;;;0.70;0.70;;;1.10;99.90;;;;;;4994851;28;20049;-77
2024/01/28 01:45:09;;;;;;;1.38;1.33;;;1.90;99.90;;;;;;5027892;28;20060;-76
2024/01/28 01:47:50;;;;;;;1.23;1.23;;;1.20;99.90;;;;;;5029721;28;20049;-76
2024/01/28 01:50:16;;;;;;;0.90;0.90;;;1.20;99.90;;;;;;4983487;28;20048;-76
2024/01/28 01:52:43;;;;;;;1.45;1.35;;;1.20;99.90;;;;;;5010954;28;20038;-76
2024/01/28 01:55:13;;;;;;;1.27;1.27;;;1.20;99.90;;;;;;4997716;28;20053;-76
2024/01/28 01:57:42;;;;;;;0.85;0.85;;;1.20;99.90;;;;;;5029211;28;20053;-77
2024/01/28 02:00:14;;;;;;;0.82;0.82;;;1.20;99.90;;;;;;5025134;28;20045;-77
2024/01/28 02:02:49;;;;;;;0.85;0.85;;;1.20;99.90;;;;;;5009935;28;20052;-76
2024/01/28 02:05:39;;;;;;;0.70;0.70;;;1.10;99.90;;;;;;5030780;28;20045;-75
2024/01/28 02:08:06;;;;;;;0.70;0.70;;;1.10;99.90;;;;;;5010844;28;20048;-77
2024/01/28 02:10:32;;;;;;;0.80;0.80;;;1.10;99.90;;;;;;5012181;28;20117;-76
2024/01/28 02:13:03;;;;;;;0.68;0.68;;;1.70;99.90;;;;;;4996634;28;20403;-76
2024/01/28 02:15:38;;;;;;;0.70;0.70;;;1.10;99.90;;;;;;5008013;28;20510;-76
2024/01/28 02:18:06;;;;;;;0.60;0.60;;;1.00;99.90;;;;;;4973172;28;20045;-80
2024/01/28 02:20:31;;;;;;;0.90;0.90;;;1.00;99.90;;;;;;5010643;28;20584;-77
2024/01/28 02:23:14;;;;;;;0.70;0.70;;;1.00;99.90;;;;;;5012010;28;20072;-76
2024/01/28 02:25:43;;;;;;;0.80;0.80;;;1.00;99.90;;;;;;5012896;28;20045;-76
2024/01/28 02:28:08;;;;;;;0.80;0.80;;;1.00;99.90;;;;;;5027673;28;20044;-76
2024/01/28 02:30:36;;;;;;;0.77;0.77;;;0.90;99.90;;;;;;5029171;28;20116;-77
2024/01/28 02:33:02;;;;;;;0.70;0.70;;;0.90;99.90;;;;;;4998444;28;20037;-77
2024/01/28 02:35:27;;;;;;;1.23;1.23;;;0.90;99.90;;;;;;5006811;28;20048;-77
2024/01/28 02:37:53;;;;;;;0.65;0.65;;;0.80;99.90;;;;;;5011191;28;20518;-75
2024/01/28 02:40:28;;;;;;;1.48;1.38;;;0.90;99.90;;;;;;4978731;28;20045;-76
2024/01/28 02:42:54;;;;;;;0.80;0.80;;;0.90;99.90;;;;;;5009589;28;20257;-76
2024/01/28 02:45:20;;;;;;;0.80;0.80;;;0.90;99.90;;;;;;5011684;28;20503;-75
2024/01/28 02:47:46;;;;;;;0.80;0.80;;;1.10;99.90;;;;;;5027448;28;20059;-76
2024/01/28 02:50:12;;;;;;;0.80;0.80;;;1.30;99.90;;;;;;5010426;28;20033;-76
2024/01/28 02:52:38;;;;;;;;;;;1.20;99.90;;;;;;5008154;28;20099;-77
2024/01/28 02:55:04;;;;;;;0.82;0.82;;;1.20;99.90;;;;;;5012479;28;20357;-75
2024/01/28 02:57:35;;;;;;;;;;;1.20;99.90;;;;;;4996784;28;20037;-76
2024/01/28 03:00:03;;;;;;;0.80;0.80;;;1.20;99.90;;;;;;5025756;28;19975;-77
2024/01/28 03:02:30;;;;;;;0.60;0.60;;;1.30;99.90;;;;;;5030439;28;20068;-75
2024/01/28 03:04:56;;;;;;;1.35;1.25;;;1.30;99.90;;;;;;5014692;28;20045;-76
2024/01/28 03:07:28;;;;;;;0.80;0.80;;;2.30;99.90;;;;;;5015443;28;20791;-77
2024/01/28 03:10:04;;;;;;;0.63;0.63;;;2.60;99.90;;;;;;4997777;28;20411;-76
2024/01/28 03:12:31;;;;;;;0.70;0.70;;;1.10;99.90;;;;;;5014530;28;20037;-76
2024/01/28 03:14:58;;;;;;;0.70;0.70;;;1.10;99.90;;;;;;4997034;28;20033;-75
2024/01/28 03:17:23;;;;;;;0.60;0.60;;;1.10;99.90;;;;;;5013202;28;20898;-76
2024/01/28 03:19:55;;;;;;;1.65;1.55;;;1.10;99.90;;;;;;5015505;28;20047;-75
2024/01/28 03:22:21;;;;;;;0.70;0.70;;;1.20;99.90;;;;;;5031477;28;20053;-76
2024/01/28 03:24:53;;;;;;;0.60;0.60;;;1.50;99.90;;;;;;4998886;28;20046;-75
2024/01/28 03:27:19;;;;;;;0.60;0.60;;;1.30;99.90;;;;;;5011982;28;20091;-77
2024/01/28 03:29:44;;;;;;;0.90;0.90;;;1.40;99.90;;;;;;5015231;28;20120;-76
2024/01/28 03:32:10;;;;;;;0.70;0.70;;;1.50;99.90;;;;;;5030658;28;20120;-76
2024/01/28 03:34:39;;;;;;;0.68;0.68;;;1.50;99.90;;;;;;5013856;28;20065;-78
2024/01/28 03:37:05;;;;;;;;;;;3.20;99.90;;;;;;5013079;28;20404;-76
2024/01/28 03:39:32;;;;;;;0.75;0.75;;;1.60;99.90;;;;;;5008330;28;19946;-76
2024/01/28 03:41:57;;;;;;;0.70;0.70;;;1.60;99.90;;;;;;5013350;28;20050;-83
2024/01/28 03:44:24;;;;;;;0.85;0.85;;;1.60;99.90;;;;;;5020683;28;20053;-83
2024/01/28 03:46:57;;;;;;;0.88;0.88;;;1.60;99.90;;;;;;5016853;28;20049;-84
2024/01/28 03:49:36;;;;;;;0.70;0.70;;;2.50;99.90;;;;;;5017026;28;20042;-83
2024/01/28 03:52:03;;;;;;;;;;;1.60;99.90;;;;;;5017366;28;20121;-81
2024/01/28 03:54:35;;;;;;;0.70;0.70;;;1.60;99.90;;;;;;5018579;28;19939;-82
2024/01/28 03:57:03;;;;;;;1.48;1.42;;;2.40;99.90;;;;;;5018216;28;20093;-83
2024/01/28 03:59:29;;;;;;;0.90;0.90;;;2.40;99.90;;;;;;5002476;28;20100;-83
2024/01/28 04:01:55;;;;;;;1.92;1.83;;;1.50;99.90;;;;;;4997838;28;20050;-81
2024/01/28 04:04:20;;;;;;;0.70;0.70;;;1.50;99.90;;;;;;5010443;28;20061;-83
2024/01/28 04:06:46;;;;;;;0.70;0.70;;;1.50;99.90;;;;;;5009385;28;20068;-84
2024/01/28 04:09:13;;;;;;;1.70;1.60;;;3.00;99.90;;;;;;5010857;28;20435;-83
2024/01/28 04:11:39;;;;;;;0.70;0.70;;;1.40;99.90;;;;;;5020934;28;20129;-85
2024/01/28 04:14:07;;;;;;;0.60;0.60;;;1.40;99.90;;;;;;5010910;28;20496;-84
2024/01/28 04:16:36;;;;;;;0.60;0.60;;;2.30;99.90;;;;;;5016152;28;20122;-83
2024/01/28 04:19:04;;;;;;;17.48;1.90;;;1.30;99.90;;;;;;5019146;28;20508;-83
2024/01/28 04:21:32;;;;;;;0.80;0.80;;;1.40;99.90;;;;;;5012221;28;20054;-84
2024/01/28 04:24:00;;;;;;;0.90;0.88;;;2.60;99.90;;;;;;4999214;28;20073;-84
2024/01/28 04:26:28;;;;;;;1.92;1.83;;;2.80;99.90;;;;;;5014589;28;20045;-84
2024/01/28 04:28:55;;;;;;;0.70;0.70;;;1.30;99.90;;;;;;5000803;28;20085;-83
2024/01/28 04:31:21;;;;;;;0.70;0.70;;;1.30;99.90;;;;;;5002080;28;21313;-81
2024/01/28 04:33:50;;;;;;;0.60;0.60;;;1.20;99.90;;;;;;4988391;28;1404033;-82
2024/01/28 04:36:17;;;;;;;0.75;0.75;;;1.20;99.90;;;;;;5021910;28;20041;-83
2024/01/28 04:38:43;;;;;;;0.60;0.60;;;1.10;99.90;;;;;;5003602;28;20045;-84
2024/01/28 04:41:09;;;;;;;1.08;1.08;;;1.00;99.90;;;;;;5019218;28;20156;-84
2024/01/28 04:43:38;;;;;;;0.63;0.63;;;0.90;99.90;;;;;;5019338;28;20048;-83
2024/01/28 04:46:04;;;;;;;1.00;1.00;;;0.90;99.90;;;;;;4986898;28;20099;-86
2024/01/28 04:48:30;;;;;;;0.93;0.93;;;0.80;99.90;;;;;;5001871;28;20120;-82
2024/01/28 04:50:55;;;;;;;0.80;0.80;;;0.70;99.90;;;;;;4987487;28;20109;-84
2024/01/28 04:53:22;;;;;;;1.27;1.25;;;0.70;99.90;;;;;;5018894;28;20046;-77
2024/01/28 04:55:48;;;;;;;0.60;0.60;;;0.60;99.90;;;;;;5026977;28;20518;-77
2024/01/28 04:58:14;;;;;;;0.90;0.90;;;0.60;99.90;;;;;;5014718;28;20037;-76
2024/01/28 05:00:41;;;;;;;0.85;0.85;;;0.90;99.90;;;;;;4981753;28;20061;-76
2024/01/28 05:03:07;;;;;;;0.60;0.60;;;0.40;99.90;;;;;;5027191;28;20045;-76
2024/01/28 05:05:33;;;;;;;0.70;0.70;;;0.50;99.90;;;;;;5029726;28;20164;-75
2024/01/28 05:08:00;;;;;;;0.80;0.80;;;0.40;99.90;;;;;;5010152;28;20049;-75
2024/01/28 05:10:33;;;;;;;0.77;0.77;;;0.40;99.90;;;;;;4995797;28;20048;-76
2024/01/28 05:12:59;;;;;;;0.88;0.88;;;0.20;99.90;;;;;;5011406;28;20056;-76
2024/01/28 05:15:31;;;;;;;0.60;0.60;;;2.10;99.90;;;;;;5031577;28;20117;-76
2024/01/28 05:17:56;;;;;;;2.38;2.28;;;2.00;99.90;;;;;;5031287;28;20048;-76
2024/01/28 05:20:22;;;;;;;0.80;0.80;;;1.40;99.90;;;;;;4996918;28;20045;-74
2024/01/28 05:22:48;;;;;;;0.90;0.90;;;0.70;99.90;;;;;;4994929;28;20065;-76
2024/01/28 05:25:17;;;;;;;0.70;0.70;;;0.10;99.90;;;;;;5029878;28;20365;-76
2024/01/28 05:27:44;;;;;;;1.10;1.10;;;0.10;99.90;;;;;;5013181;28;20442;-76
2024/01/28 05:30:10;;;;;;;0.68;0.68;;;0.10;99.90;;;;;;5014668;28;20139;-77
2024/01/28 05:32:36;;;;;;;0.70;0.70;;;0.10;99.90;;;;;;5009495;28;20068;-76
2024/01/28 05:35:03;;;;;;;0.70;0.70;;;0.00;99.90;;;;;;5027268;28;20049;-76
2024/01/28 05:37:29;;;;;;;0.70;0.70;;;0.00;99.90;;;;;;5010524;28;20041;-76
2024/01/28 05:39:55;;;;;;;0.80;0.80;;;1.40;99.90;;;;;;4979911;28;20125;-76
2024/01/28 05:42:21;;;;;;;0.73;0.73;;;0.10;99.90;;;;;;4980171;28;20388;-76
2024/01/28 05:44:47;;;;;;;0.80;0.80;;;0.10;99.90;;;;;;5008677;28;20056;-76
2024/01/28 05:47:13;;;;;;;;;;;0.10;99.90;;;;;;4998124;28;20148;-77
2024/01/28 05:49:39;;;;;;;0.82;0.82;;;0.10;99.90;;;;;;5012743;28;20000;-76
2024/01/28 05:52:07;;;;;;;0.70;0.70;;;0.80;99.90;;;;;;5013975;28;20042;-76
2024/01/28 05:54:41;;;;;;;3.83;2.22;;;0.10;99.90;;;;;;4996742;28;20100;-77
2024/01/28 05:57:07;;;;;;;2.88;2.75;;;0.20;99.90;;;;;;5027041;28;20084;-76
2024/01/28 05:59:33;;;;;;;0.80;0.80;;;0.20;99.90;;;;;;4995272;28;20518;-76
2024/01/28 06:01:59;;;;;;;0.70;0.70;;;0.30;99.90;;;;;;5032160;28;20053;-84
2024/01/28 06:04:27;;;;;;;0.80;0.80;;;0.30;99.90;;;;;;5018926;28;20483;-84
2024/01/28 06:06:52;;;;;;;0.80;0.80;;;0.40;99.90;;;;;;5002679;28;20052;-86
2024/01/28 06:09:19;;;;;;;0.70;0.70;;;0.40;99.90;;;;;;5019798;28;20399;-83
2024/01/28 06:11:46;;;;;;;0.70;0.70;;;0.40;99.90;;;;;;5001486;28;20517;-81
2024/01/28 06:14:12;;;;;;;0.80;0.80;;;0.40;99.90;;;;;;5001100;28;20061;-80
2024/01/28 06:16:39;;;;;;;1.05;1.05;;;0.40;99.90;;;;;;5036374;28;20083;-85
2024/01/28 06:19:04;;;;;;;0.75;0.75;;;0.40;99.90;;;;;;5017046;28;20052;-83
2024/01/28 06:21:38;;;;;;;0.77;0.77;;;0.30;99.90;;;;;;4999345;28;20049;-83
2024/01/28 06:24:04;;;;;;;0.73;0.73;;;0.30;99.90;;;;;;5003100;28;20124;-82
2024/01/28 06:26:32;;;;;;;0.80;0.80;;;0.20;99.90;;;;;;5031172;28;20065;-83
2024/01/28 06:28:59;;;;;;;0.80;0.80;;;1.00;99.90;;;;;;5016938;28;20128;-82
2024/01/28 06:31:25;;;;;;;0.80;0.80;;;0.10;99.90;;;;;;4986929;28;20418;-84
2024/01/28 06:33:51;;;;;;;0.80;0.80;;;0.00;99.90;;;;;;5013708;28;20068;-83
2024/01/28 06:36:21;;;;;;;;;;;0.50;99.90;;;;;;5014573;28;20096;-82
2024/01/28 06:38:47;;;;;;;0.80;0.80;;;-0.10;99.90;;;;;;5010571;28;19918;-82
2024/01/28 06:41:14;;;;;;;0.75;0.75;;;0.40;99.90;;;;;;4996666;28;20562;-82
2024/01/28 06:43:39;;;;;;;0.80;0.80;;;-0.30;99.90;;;;;;5016493;28;20081;-84
2024/01/28 06:46:07;;;;;;;0.73;0.73;;;0.10;99.90;;;;;;5015037;28;20041;-84
2024/01/28 06:48:33;;;;;;;0.80;0.80;;;-0.80;99.90;;;;;;5018862;28;20095;-86
2024/01/28 06:51:03;;;;;;;0.98;0.98;;;-0.50;99.90;;;;;;5018604;28;20475;-83
2024/01/28 06:53:42;;;;;;;0.85;0.85;;;-0.40;99.90;;;;;;5016721;28;20053;-85
2024/01/28 06:56:30;;;;;;;0.90;0.90;;;-0.50;99.90;;;;;;5011122;28;20048;-83
2024/01/28 06:58:57;;;;;;;1.00;1.00;;;-0.50;99.90;;;;;;5015012;28;20053;-84
2024/01/28 07:01:26;;;;;;;0.73;0.73;;;-0.60;99.90;;;;;;5032070;28;20047;-82
2024/01/28 07:03:53;;;;;;;0.70;0.70;;;-0.60;99.90;;;;;;5015357;28;20038;-84
2024/01/28 07:06:26;;;;;;;0.80;0.80;;;-0.60;99.90;;;;;;5016218;28;20085;-84
2024/01/28 07:08:53;;;;;;;0.75;0.75;;;-0.90;99.90;;;;;;5018738;28;20037;-83
2024/01/28 07:11:19;;;;;;;0.70;0.70;;;-0.80;99.90;;;;;;5020030;28;20041;-82
2024/01/28 07:13:51;;;;;;;0.90;0.90;;;-1.70;99.90;;;;;;4993363;28;20443;-76
2024/01/28 07:16:19;;;;;;;0.90;0.90;;;1.50;99.90;;;;;;5010563;28;20412;-76
2024/01/28 07:18:54;;;;;;;0.80;0.80;;;-1.10;99.90;;;;;;5006678;28;20085;-77
2024/01/28 07:21:22;;;;;;;0.88;0.88;;;1.70;99.90;;;;;;5009062;28;20049;-77
2024/01/28 07:23:48;;;;;;;0.80;0.80;;;-0.70;99.90;;;;;;5008837;28;20037;-75
2024/01/28 07:26:26;;;;;;;1.10;1.10;;;1.60;99.90;;;;;;5007526;28;20048;-76
2024/01/28 07:28:52;;;;;;;0.93;0.93;;;1.30;99.90;;;;;;5009607;28;20108;-76
2024/01/28 07:31:17;;;;;;;0.90;0.90;;;0.80;99.90;;;;;;5002588;28;20074;-75
2024/01/28 07:33:43;;;;;;;0.93;0.93;;;-1.40;99.90;;;;;;5002699;28;20136;-75
2024/01/28 07:36:27;;;;;;;0.80;0.80;;;0.80;99.90;;;;;;5000151;28;20061;-76
2024/01/28 07:39:04;;;;;;;0.90;0.90;;;-1.40;99.90;;;;;;5008013;28;20523;-76
2024/01/28 07:41:41;;;;;;;4.22;4.00;;;-0.60;99.90;;;;;;5008171;28;20104;-77
2024/01/28 07:44:26;;;;;;;0.85;0.85;;;-1.30;99.90;;;;;;5008787;28;20041;-78
2024/01/28 07:46:58;;;;;;;0.80;0.80;;;-1.30;99.90;;;;;;4993034;28;20391;-74
2024/01/28 07:49:32;;;;;;;0.82;0.82;;;-1.20;99.90;;;;;;5005912;28;20052;-76
2024/01/28 07:51:58;;;;;;;0.80;0.80;;;-1.20;99.90;;;;;;4992234;28;20042;-76
2024/01/28 07:54:35;;;;;;;0.70;0.70;;;-0.50;99.90;;;;;;5010066;28;20041;-75
2024/01/28 07:57:09;;;;;;;0.90;0.90;;;-1.20;99.90;;;;;;5008797;28;20042;-77
2024/01/28 07:59:35;;;;;;;0.80;0.80;;;-1.40;99.90;;;;;;4978414;28;20056;-77
2024/01/28 08:02:06;;;;;;;0.90;0.90;;;-1.30;99.90;;;;;;5012724;28;20403;-78
2024/01/28 08:04:33;;;;;;;0.80;0.80;;;-1.00;99.90;;;;;;5012454;28;20052;-77
2024/01/28 08:07:34;;;;;;;0.75;0.75;;;1.50;99.90;;;;;;5012959;28;20041;-77
2024/01/28 08:10:06;;;;;;;0.90;0.90;;;-1.00;99.90;;;;;;4996677;28;20045;-77
2024/01/28 08:12:37;;;;;;;0.80;0.80;;;-1.00;99.90;;;;;;5013890;28;20034;-76
2024/01/28 08:15:03;;;;;;;0.80;0.80;;;-1.00;99.90;;;;;;5010909;28;20088;-76
2024/01/28 08:17:29;;;;;;;;;;;-0.90;99.90;;;;;;5015925;28;20056;-76
2024/01/28 08:20:10;;;;;;;0.98;0.98;;;0.80;99.90;;;;;;4999643;28;19967;-76
2024/01/28 08:23:00;;;;;;;1.00;1.00;;;0.20;99.90;;;;;;5011355;28;20133;-77
2024/01/28 08:25:27;;;;;;;0.80;0.80;;;-0.90;99.90;;;;;;4996391;28;20494;-77
2024/01/28 08:28:13;;;;;;;0.80;0.80;;;-1.10;99.90;;;;;;4995727;28;20049;-75
2024/01/28 08:30:38;;;;;;;1.60;1.55;;;-0.80;99.90;;;;;;5010678;28;20037;-77
2024/01/28 08:33:04;;;;;;;1.20;1.20;;;-0.90;99.90;;;;;;5012044;28;20053;-77
2024/01/28 08:35:37;;;;;;;0.85;0.85;;;0.30;99.90;;;;;;5018953;28;20054;-76
2024/01/28 08:38:04;;;;;;;0.80;0.80;;;-0.90;99.90;;;;;;5015086;28;20045;-79
2024/01/28 08:40:39;;;;;;;0.80;0.80;;;1.20;99.90;;;;;;5012928;28;20068;-76
2024/01/28 08:43:08;;;;;;;0.80;0.80;;;-0.90;99.90;;;;;;5035329;28;20406;-78
2024/01/28 08:45:36;;;;;;;0.80;0.80;;;-0.80;99.90;;;;;;5031663;28;20037;-79
2024/01/28 08:48:11;;;;;;;0.82;0.82;;;-0.80;99.90;;;;;;5013466;28;20041;-77
2024/01/28 08:50:39;;;;;;;0.80;0.80;;;1.10;99.90;;;;;;5030234;28;20038;-76
2024/01/28 08:53:05;;;;;;;0.80;0.80;;;0.50;99.90;;;;;;5029352;28;20483;-76
2024/01/28 08:55:31;;;;;;;0.80;0.80;;;0.10;99.90;;;;;;5034411;28;20049;-76
2024/01/28 08:57:59;;;;;;;0.73;0.73;;;1.90;99.90;;;;;;5031558;28;20522;-77
2024/01/28 09:00:25;;;;;;;0.73;0.73;;;-0.40;99.90;;;;;;4999595;28;20043;-77
2024/01/28 09:02:51;;;;;;;0.80;0.80;;;1.70;99.90;;;;;;4992659;28;20155;-77
2024/01/28 09:05:17;;;;;;;0.60;0.60;;;-0.40;99.90;;;;;;5009948;28;20039;-76
2024/01/28 09:07:47;;;;;;;0.95;0.95;;;-0.10;99.90;;;;;;5030119;28;20136;-78
2024/01/28 09:10:14;;;;;;;0.82;0.82;;;-0.10;99.90;;;;;;5030234;28;20092;-77
2024/01/28 09:12:41;;;;;;;0.70;0.70;;;0.10;99.90;;;;;;5010170;28;20046;-77
2024/01/28 09:15:07;;;;;;;0.63;0.63;;;0.30;99.90;;;;;;4999082;28;20033;-78
2024/01/28 09:17:35;;;;;;;0.77;0.77;;;0.40;99.90;;;;;;4982578;28;20057;-77
2024/01/28 09:20:00;;;;;;;0.80;0.80;;;1.20;99.90;;;;;;5014868;28;20045;-76
2024/01/28 09:22:26;;;;;;;0.80;0.80;;;0.50;99.90;;;;;;5035386;28;20029;-77
2024/01/28 09:24:54;;;;;;;0.90;0.90;;;0.50;99.90;;;;;;5015981;28;20112;-74
2024/01/28 09:27:22;;;;;;;0.93;0.93;;;0.80;99.90;;;;;;5008030;28;20530;-75
2024/01/28 09:30:07;;;;;;;0.80;0.80;;;0.90;99.90;;;;;;5013389;28;20414;-77
2024/01/28 09:32:41;;;;;;;0.98;0.98;;;1.10;99.90;;;;;;5028849;28;20107;-75
2024/01/28 09:35:15;;;;;;;0.90;0.90;;;1.50;99.90;;;;;;5027039;28;20045;-78
2024/01/28 09:37:54;;;;;;;0.70;0.70;;;1.50;99.90;;;;;;5030326;28;20041;-76
2024/01/28 09:40:28;;;;;;;0.70;0.70;;;1.60;99.90;;;;;;5014007;28;20073;-77
2024/01/28 09:43:06;;;;;;;0.70;0.70;;;1.80;99.90;;;;;;5030544;28;20183;-75
2024/01/28 09:45:35;;;;;;;0.70;0.70;;;2.00;99.90;;;;;;5030220;28;20041;-75
2024/01/28 09:48:27;;;;;;;0.70;0.70;;;3.10;99.90;;;;;;5030121;28;20529;-76
2024/01/28 09:50:54;;;;;;;0.70;0.70;;;4.20;99.90;;;;;;5028875;28;20503;-76
2024/01/28 09:53:25;;;;;;;0.80;0.80;;;2.70;99.90;;;;;;5028828;28;20120;-76
2024/01/28 09:56:13;;;;;;;0.73;0.73;;;2.90;99.90;;;;;;5029641;28;20056;-76
2024/01/28 09:58:49;;;;;;;0.63;0.63;;;3.10;99.90;;;;;;5028055;28;20099;-76
2024/01/28 10:01:18;;;;;;;0.70;0.70;;;3.20;99.90;;;;;;5010829;28;20132;-76
2024/01/28 10:03:45;;;;;;;;;;;3.30;99.90;;;;;;5004586;28;20041;-76
2024/01/28 10:06:18;;;;;;;0.70;0.70;;;3.30;99.90;;;;;;5009461;28;19971;-76
2024/01/28 10:08:52;;;;;;;1.17;1.10;;;3.40;99.90;;;;;;5035394;28;20045;-77
2024/01/28 10:11:30;;;;;;;0.60;0.60;;;3.40;99.90;;;;;;5017387;28;20049;-76
2024/01/28 10:13:56;;;;;;;1.88;1.83;;;3.40;99.90;;;;;;5012532;28;20462;-76
2024/01/28 10:16:23;;;;;;;;;;;3.90;99.90;;;;;;5026458;28;20033;-76
2024/01/28 10:18:50;;;;;;;0.55;0.55;;;3.30;99.90;;;;;;5034434;28;19917;-77
2024/01/28 10:21:25;;;;;;;0.60;0.60;;;4.40;99.90;;;;;;5027598;28;20131;-77
2024/01/28 10:23:55;;;;;;;0.70;0.70;;;3.30;99.90;;;;;;5027185;28;20052;-76
2024/01/28 10:26:35;;;;;;;1.00;1.00;;;3.20;99.90;;;;;;5009235;28;20052;-76
2024/01/28 10:29:02;;;;;;;0.60;0.60;;;3.50;99.90;;;;;;5027779;28;20499;-79
2024/01/28 10:31:30;;;;;;;0.60;0.60;;;3.00;99.90;;;;;;5014118;28;20217;-77
2024/01/28 10:33:56;;;;;;;0.65;0.65;;;3.10;99.90;;;;;;5025603;28;20042;-76
2024/01/28 10:36:47;;;;;;;0.70;0.70;;;3.20;99.90;;;;;;5009263;28;20061;-75
2024/01/28 10:39:34;;;;;;;0.55;0.55;;;3.40;99.90;;;;;;5008385;28;20050;-76
2024/01/28 10:42:03;;;;;;;0.70;0.70;;;3.60;99.90;;;;;;4989812;28;20046;-75
2024/01/28 10:45:25;;;;;;;1.10;1.10;;;3.80;99.90;;;;;;5006071;28;20042;-75
2024/01/28 10:48:23;;;;;;;6.28;1.13;;;4.00;99.90;;;;;;4992750;28;20049;-76
2024/01/28 10:51:13;;;;;;;0.77;0.77;;;4.30;99.90;;;;;;5006307;28;20601;-77
2024/01/28 10:53:40;;;;;;;2.15;2.05;;;4.40;99.90;;;;;;5004772;28;20499;-78
2024/01/28 10:56:12;;;;;;;0.90;0.90;;;4.50;99.90;;;;;;5008283;28;20099;-76
2024/01/28 10:58:50;;;;;;;2.17;1.05;;;4.60;99.90;;;;;;5011672;28;20084;-75
2024/01/28 11:01:17;;;;;;;0.57;0.57;;;4.90;99.90;;;;;;4989047;28;20050;-78
2024/01/28 11:04:00;;;;;;;0.70;0.70;;;4.80;99.90;;;;;;5006578;28;20503;-76
2024/01/28 11:06:29;;;;;;;0.60;0.60;;;4.90;99.90;;;;;;5005326;28;20126;-76
2024/01/28 11:08:55;;;;;;;1.85;0.95;;;5.00;99.90;;;;;;4979281;28;20450;-77
2024/01/28 11:11:39;;;;;;;3.10;2.92;;;5.00;99.90;;;;;;5009330;28;20034;-76
2024/01/28 11:14:09;;;;;;;0.55;0.55;;;5.10;99.90;;;;;;4993541;28;20108;-77
2024/01/28 11:16:37;;;;;;;0.40;0.40;;;5.20;99.90;;;;;;5010243;28;20499;-78
2024/01/28 11:19:31;;;;;;;0.85;0.85;;;5.30;99.90;;;;;;5008894;28;20060;-77
2024/01/28 11:22:07;;;;;;;2.63;1.13;;;5.30;99.90;;;;;;4977880;28;20492;-77
2024/01/28 11:24:59;;;;;;;0.40;0.40;;;5.90;99.90;;;;;;5001165;28;20466;-79
2024/01/28 11:27:29;;;;;;;0.50;0.50;;;5.60;99.90;;;;;;4993925;28;20515;-76
2024/01/28 11:29:58;;;;;;;0.47;0.47;;;5.70;99.90;;;;;;5011244;28;20100;-78
2024/01/28 11:32:48;;;;;;;0.50;0.50;;;5.70;99.90;;;;;;5006711;28;20038;-76
2024/01/28 11:35:15;;;;;;;0.60;0.60;;;5.80;99.90;;;;;;5011813;28;20384;-77
2024/01/28 11:38:00;;;;;;;0.40;0.40;;;5.90;99.90;;;;;;4990125;28;20055;-78
2024/01/28 11:40:43;;;;;;;0.60;0.60;;;6.00;99.90;;;;;;4982470;28;20051;-78
2024/01/28 11:43:34;;;;;;;0.52;0.52;;;6.20;99.90;;;;;;5004024;28;20052;-76
2024/01/28 11:46:07;;;;;;;0.50;0.50;;;6.30;99.90;;;;;;4999834;28;20045;-76
2024/01/28 11:48:34;;;;;;;0.50;0.50;;;6.30;99.90;;;;;;5031505;28;20144;-78
2024/01/28 11:51:01;;;;;;;0.60;0.60;;;6.40;99.90;;;;;;4997550;28;20060;-77
2024/01/28 11:53:33;;;;;;;0.60;0.60;;;6.40;99.90;;;;;;5008408;28;20056;-77
2024/01/28 11:56:07;;;;;;;0.55;0.55;;;6.50;99.90;;;;;;5015303;28;20037;-76
2024/01/28 11:58:39;;;;;;;0.50;0.50;;;6.60;99.90;;;;;;5012731;28;20121;-77
2024/01/28 12:01:04;;;;;;;0.60;0.60;;;6.60;99.90;;;;;;5014905;28;20033;-77
2024/01/28 12:03:33;;;;;;;0.60;0.60;;;6.70;99.90;;;;;;4997517;28;20500;-75
2024/01/28 12:05:59;;;;;;;0.60;0.60;;;6.70;99.90;;;;;;5025563;28;20112;-76
2024/01/28 12:08:26;;;;;;;;;;;6.80;99.90;;;;;;5009420;28;20058;-76
2024/01/28 12:11:07;;;;;;;1.70;1.60;;;6.80;99.90;;;;;;5011640;28;20452;-76
2024/01/28 12:13:33;;;;;;;0.32;0.32;;;6.90;99.90;;;;;;5027977;28;20051;-76
2024/01/28 12:16:01;;;;;;;0.88;0.88;;;6.90;99.90;;;;;;4997874;28;20041;-77
2024/01/28 12:18:33;;;;;;;0.60;0.60;;;6.90;99.90;;;;;;5029542;28;20677;-77
2024/01/28 12:21:01;;;;;;;0.52;0.52;;;6.90;99.90;;;;;;4995071;28;20037;-78
2024/01/28 12:23:30;;;;;;;0.63;0.63;;;6.90;99.90;;;;;;5007937;28;20139;-77
2024/01/28 12:25:56;;;;;;;0.68;0.68;;;6.90;99.90;;;;;;5010991;28;20399;-76
2024/01/28 12:28:23;;;;;;;;;;;6.90;99.90;;;;;;5006702;28;20053;-76
2024/01/28 12:30:56;;;;;;;0.50;0.50;;;6.90;99.90;;;;;;5011334;28;19931;-77
2024/01/28 12:33:23;;;;;;;0.70;0.70;;;6.90;99.90;;;;;;5012824;28;20433;-78
2024/01/28 12:35:49;;;;;;;0.43;0.43;;;7.00;99.90;;;;;;5004081;28;20652;-79
2024/01/28 12:38:21;;;;;;;0.50;0.50;;;7.00;99.90;;;;;;5028253;28;20279;-78
2024/01/28 12:40:56;;;;;;;0.47;0.47;;;7.10;99.90;;;;;;5025121;28;20038;-77
2024/01/28 12:43:25;;;;;;;0.73;0.73;;;7.20;99.90;;;;;;5031984;28;20121;-78
2024/01/28 12:46:12;;;;;;;0.65;0.65;;;7.20;99.90;;;;;;5016030;28;20184;-79
2024/01/28 12:48:38;;;;;;;0.50;0.50;;;7.30;99.90;;;;;;5017619;28;20491;-78
2024/01/28 12:51:05;;;;;;;;;;;8.50;99.90;;;;;;5021213;28;20041;-77
2024/01/28 12:53:31;;;;;;;0.50;0.50;;;7.40;99.90;;;;;;5002716;28;19929;-76
2024/01/28 12:55:56;;;;;;;0.40;0.40;;;7.50;99.90;;;;;;5022069;28;20030;-76
2024/01/28 12:58:22;;;;;;;0.50;0.50;;;7.50;99.90;;;;;;4979794;28;20052;-76
2024/01/28 13:00:48;;;;;;;4.75;2.50;;;7.50;99.90;;;;;;4989838;28;20045;-77
2024/01/28 13:03:14;;;;;;;0.45;0.45;;;7.60;99.90;;;;;;5010118;28;20041;-76
2024/01/28 13:05:42;;;;;;;0.55;0.55;;;7.60;99.90;;;;;;4993795;28;20041;-77
2024/01/28 13:08:14;;;;;;;0.40;0.40;;;7.70;99.90;;;;;;5007810;28;20098;-77
2024/01/28 13:10:42;;;;;;;0.50;0.50;;;7.70;99.90;;;;;;5008207;28;20041;-76
2024/01/28 13:13:07;;;;;;;0.45;0.45;;;7.80;99.90;;;;;;5004994;28;20061;-76